sensor_id;sensor_type;location;lat;lon;timestamp;temperature;humidity
41457;DHT22;27197;51.752;5.220;2023-07-31T00:00:58;21.50;79.60
41457;DHT22;27197;51.752;5.220;2023-07-31T00:03:27;21.60;78.90
41457;DHT22;27197;51.752;5.220;2023-07-31T00:05:57;21.70;79.60
41457;DHT22;27197;51.752;5.220;2023-07-31T00:08:27;21.70;79.30
41457;DHT22;27197;51.752;5.220;2023-07-31T00:11:00;21.70;78.80
41457;DHT22;27197;51.752;5.220;2023-07-31T00:13:29;21.70;78.00
41457;DHT22;27197;51.752;5.220;2023-07-31T00:16:02;21.70;79.50
41457;DHT22;27197;51.752;5.220;2023-07-31T00:18:30;21.60;79.20
41457;DHT22;27197;51.752;5.220;2023-07-31T00:21:00;21.70;78.70
41457;DHT22;27197;51.752;5.220;2023-07-31T00:23:31;21.60;78.40
41457;DHT22;27197;51.752;5.220;2023-07-31T00:26:02;21.50;79.60
41457;DHT22;27197;51.752;5.220;2023-07-31T00:28:34;21.50;79.60
41457;DHT22;27197;51.752;5.220;2023-07-31T00:31:03;21.50;79.50
41457;DHT22;27197;51.752;5.220;2023-07-31T00:33:37;21.60;79.10
41457;DHT22;27197;51.752;5.220;2023-07-31T00:36:08;21.50;79.40
41457;DHT22;27197;51.752;5.220;2023-07-31T00:38:37;21.40;79.20
41457;DHT22;27197;51.752;5.220;2023-07-31T00:41:08;21.50;79.60
41457;DHT22;27197;51.752;5.220;2023-07-31T00:43:39;21.50;79.90
41457;DHT22;27197;51.752;5.220;2023-07-31T00:46:10;21.40;80.20
41457;DHT22;27197;51.752;5.220;2023-07-31T00:56:42;21.40;79.00
41457;DHT22;27197;51.752;5.220;2023-07-31T00:59:15;21.30;79.70
41457;DHT22;27197;51.752;5.220;2023-07-31T01:01:47;21.40;79.90
41457;DHT22;27197;51.752;5.220;2023-07-31T01:04:21;21.30;80.00
41457;DHT22;27197;51.752;5.220;2023-07-31T01:09:47;21.20;79.90
41457;DHT22;27197;51.752;5.220;2023-07-31T01:12:17;21.30;80.40
41457;DHT22;27197;51.752;5.220;2023-07-31T01:15:06;21.40;79.60
41457;DHT22;27197;51.752;5.220;2023-07-31T01:17:38;21.30;80.00
41457;DHT22;27197;51.752;5.220;2023-07-31T01:20:23;21.20;79.60
41457;DHT22;27197;51.752;5.220;2023-07-31T01:29:00;21.30;79.90
41457;DHT22;27197;51.752;5.220;2023-07-31T01:34:18;21.40;79.00
41457;DHT22;27197;51.752;5.220;2023-07-31T01:36:52;21.30;79.30
41457;DHT22;27197;51.752;5.220;2023-07-31T01:39:22;21.30;79.20
41457;DHT22;27197;51.752;5.220;2023-07-31T01:41:56;21.40;80.20
41457;DHT22;27197;51.752;5.220;2023-07-31T01:44:25;21.40;78.50
41457;DHT22;27197;51.752;5.220;2023-07-31T01:46:59;21.40;79.10
41457;DHT22;27197;51.752;5.220;2023-07-31T01:49:28;21.20;80.40
41457;DHT22;27197;51.752;5.220;2023-07-31T01:52:03;21.30;79.60
41457;DHT22;27197;51.752;5.220;2023-07-31T01:54:31;21.20;80.00
41457;DHT22;27197;51.752;5.220;2023-07-31T01:57:05;21.20;79.60
41457;DHT22;27197;51.752;5.220;2023-07-31T01:59:37;21.20;79.40
41457;DHT22;27197;51.752;5.220;2023-07-31T02:02:09;21.30;78.90
41457;DHT22;27197;51.752;5.220;2023-07-31T02:04:38;21.20;79.60
41457;DHT22;27197;51.752;5.220;2023-07-31T02:07:10;21.20;79.60
41457;DHT22;27197;51.752;5.220;2023-07-31T02:09:41;21.20;79.30
41457;DHT22;27197;51.752;5.220;2023-07-31T02:12:13;21.20;79.30
41457;DHT22;27197;51.752;5.220;2023-07-31T02:14:45;21.30;78.60
41457;DHT22;27197;51.752;5.220;2023-07-31T02:17:15;21.20;79.20
41457;DHT22;27197;51.752;5.220;2023-07-31T02:19:45;21.20;79.30
41457;DHT22;27197;51.752;5.220;2023-07-31T02:22:16;21.10;78.80
41457;DHT22;27197;51.752;5.220;2023-07-31T02:24:48;21.10;79.30
41457;DHT22;27197;51.752;5.220;2023-07-31T02:27:22;21.20;79.70
41457;DHT22;27197;51.752;5.220;2023-07-31T02:29:52;21.20;78.60
41457;DHT22;27197;51.752;5.220;2023-07-31T02:32:21;21.30;78.40
41457;DHT22;27197;51.752;5.220;2023-07-31T02:34:52;21.40;78.90
41457;DHT22;27197;51.752;5.220;2023-07-31T02:37:25;21.30;78.20
41457;DHT22;27197;51.752;5.220;2023-07-31T02:39:56;21.30;78.90
41457;DHT22;27197;51.752;5.220;2023-07-31T02:42:26;21.10;78.90
41457;DHT22;27197;51.752;5.220;2023-07-31T02:44:56;21.10;77.80
41457;DHT22;27197;51.752;5.220;2023-07-31T02:47:29;21.00;79.10
41457;DHT22;27197;51.752;5.220;2023-07-31T02:50:03;21.10;78.00
41457;DHT22;27197;51.752;5.220;2023-07-31T02:52:35;21.20;78.60
41457;DHT22;27197;51.752;5.220;2023-07-31T02:55:09;21.30;78.50
41457;DHT22;27197;51.752;5.220;2023-07-31T02:57:43;21.40;77.30
41457;DHT22;27197;51.752;5.220;2023-07-31T03:00:13;21.30;77.50
41457;DHT22;27197;51.752;5.220;2023-07-31T03:02:43;21.40;78.00
41457;DHT22;27197;51.752;5.220;2023-07-31T03:05:15;21.40;78.20
41457;DHT22;27197;51.752;5.220;2023-07-31T03:07:45;21.40;77.50
41457;DHT22;27197;51.752;5.220;2023-07-31T03:10:16;21.50;78.40
41457;DHT22;27197;51.752;5.220;2023-07-31T03:12:49;21.50;77.60
41457;DHT22;27197;51.752;5.220;2023-07-31T03:15:21;21.40;76.20
41457;DHT22;27197;51.752;5.220;2023-07-31T03:17:51;21.30;75.90
41457;DHT22;27197;51.752;5.220;2023-07-31T03:20:22;21.30;77.80
41457;DHT22;27197;51.752;5.220;2023-07-31T03:22:52;21.30;76.80
41457;DHT22;27197;51.752;5.220;2023-07-31T03:25:23;21.40;77.00
41457;DHT22;27197;51.752;5.220;2023-07-31T03:27:54;21.30;77.70
41457;DHT22;27197;51.752;5.220;2023-07-31T03:30:26;21.40;78.20
41457;DHT22;27197;51.752;5.220;2023-07-31T03:32:56;21.50;77.30
41457;DHT22;27197;51.752;5.220;2023-07-31T03:35:26;21.30;76.80
41457;DHT22;27197;51.752;5.220;2023-07-31T03:37:55;21.40;77.70
41457;DHT22;27197;51.752;5.220;2023-07-31T03:40:27;21.40;77.50
41457;DHT22;27197;51.752;5.220;2023-07-31T03:43:00;21.30;77.60
41457;DHT22;27197;51.752;5.220;2023-07-31T03:45:29;21.40;77.60
41457;DHT22;27197;51.752;5.220;2023-07-31T03:48:01;21.10;77.10
41457;DHT22;27197;51.752;5.220;2023-07-31T03:50:31;21.20;76.80
41457;DHT22;27197;51.752;5.220;2023-07-31T03:53:02;21.30;76.50
41457;DHT22;27197;51.752;5.220;2023-07-31T03:55:33;21.40;78.30
41457;DHT22;27197;51.752;5.220;2023-07-31T03:58:04;21.30;76.80
41457;DHT22;27197;51.752;5.220;2023-07-31T04:00:37;21.30;76.70
41457;DHT22;27197;51.752;5.220;2023-07-31T04:03:06;21.30;77.30
41457;DHT22;27197;51.752;5.220;2023-07-31T04:05:37;21.10;76.20
41457;DHT22;27197;51.752;5.220;2023-07-31T04:08:08;21.00;77.00
41457;DHT22;27197;51.752;5.220;2023-07-31T04:10:40;21.20;78.40
41457;DHT22;27197;51.752;5.220;2023-07-31T04:13:09;21.10;77.10
41457;DHT22;27197;51.752;5.220;2023-07-31T04:15:41;21.00;78.00
41457;DHT22;27197;51.752;5.220;2023-07-31T04:18:12;20.90;77.30
41457;DHT22;27197;51.752;5.220;2023-07-31T04:20:44;21.00;77.80
41457;DHT22;27197;51.752;5.220;2023-07-31T04:23:15;21.10;77.20
41457;DHT22;27197;51.752;5.220;2023-07-31T04:25:47;21.10;77.30
41457;DHT22;27197;51.752;5.220;2023-07-31T04:28:18;21.00;78.10
41457;DHT22;27197;51.752;5.220;2023-07-31T04:30:52;21.00;78.30
41457;DHT22;27197;51.752;5.220;2023-07-31T04:33:20;21.00;77.80
41457;DHT22;27197;51.752;5.220;2023-07-31T04:35:54;21.00;76.90
41457;DHT22;27197;51.752;5.220;2023-07-31T04:38:23;20.80;77.40
41457;DHT22;27197;51.752;5.220;2023-07-31T04:40:53;20.60;78.60
41457;DHT22;27197;51.752;5.220;2023-07-31T04:43:30;20.80;79.80
41457;DHT22;27197;51.752;5.220;2023-07-31T04:46:18;20.80;79.20
41457;DHT22;27197;51.752;5.220;2023-07-31T04:48:48;20.80;79.70
41457;DHT22;27197;51.752;5.220;2023-07-31T04:51:20;20.90;79.60
41457;DHT22;27197;51.752;5.220;2023-07-31T04:53:54;20.90;80.00
41457;DHT22;27197;51.752;5.220;2023-07-31T04:56:27;21.00;79.30
41457;DHT22;27197;51.752;5.220;2023-07-31T04:58:58;20.90;78.60
41457;DHT22;27197;51.752;5.220;2023-07-31T05:01:35;20.90;80.00
41457;DHT22;27197;51.752;5.220;2023-07-31T05:04:06;20.90;79.40
41457;DHT22;27197;51.752;5.220;2023-07-31T05:06:37;21.00;79.70
41457;DHT22;27197;51.752;5.220;2023-07-31T05:09:07;20.90;79.70
41457;DHT22;27197;51.752;5.220;2023-07-31T05:11:40;20.80;79.70
41457;DHT22;27197;51.752;5.220;2023-07-31T05:19:34;21.00;79.70
41457;DHT22;27197;51.752;5.220;2023-07-31T05:22:05;21.00;79.30
41457;DHT22;27197;51.752;5.220;2023-07-31T05:24:39;20.90;80.70
41457;DHT22;27197;51.752;5.220;2023-07-31T05:27:12;20.90;80.00
41457;DHT22;27197;51.752;5.220;2023-07-31T05:29:41;21.00;80.10
41457;DHT22;27197;51.752;5.220;2023-07-31T05:32:10;21.00;79.90
41457;DHT22;27197;51.752;5.220;2023-07-31T05:34:40;21.10;79.90
41457;DHT22;27197;51.752;5.220;2023-07-31T05:37:12;21.00;79.40
41457;DHT22;27197;51.752;5.220;2023-07-31T05:39:40;21.00;80.30
41457;DHT22;27197;51.752;5.220;2023-07-31T05:42:13;21.00;80.20
41457;DHT22;27197;51.752;5.220;2023-07-31T05:44:42;20.90;80.80
41457;DHT22;27197;51.752;5.220;2023-07-31T05:47:10;21.00;80.30
41457;DHT22;27197;51.752;5.220;2023-07-31T05:49:41;20.90;80.30
41457;DHT22;27197;51.752;5.220;2023-07-31T05:52:15;20.90;81.10
41457;DHT22;27197;51.752;5.220;2023-07-31T05:57:39;20.80;81.40
41457;DHT22;27197;51.752;5.220;2023-07-31T06:00:12;20.90;81.50
41457;DHT22;27197;51.752;5.220;2023-07-31T06:02:42;20.80;81.40
41457;DHT22;27197;51.752;5.220;2023-07-31T06:05:16;20.80;81.60
41457;DHT22;27197;51.752;5.220;2023-07-31T06:07:47;20.80;81.90
41457;DHT22;27197;51.752;5.220;2023-07-31T06:10:22;20.80;82.20
41457;DHT22;27197;51.752;5.220;2023-07-31T06:12:51;20.80;81.60
41457;DHT22;27197;51.752;5.220;2023-07-31T06:15:22;20.80;82.30
41457;DHT22;27197;51.752;5.220;2023-07-31T06:17:53;20.80;82.10
41457;DHT22;27197;51.752;5.220;2023-07-31T06:20:27;20.60;82.70
41457;DHT22;27197;51.752;5.220;2023-07-31T06:22:57;20.70;82.70
41457;DHT22;27197;51.752;5.220;2023-07-31T06:25:32;20.70;82.60
41457;DHT22;27197;51.752;5.220;2023-07-31T06:28:03;20.70;83.10
41457;DHT22;27197;51.752;5.220;2023-07-31T06:30:33;20.70;82.80
41457;DHT22;27197;51.752;5.220;2023-07-31T06:33:04;20.70;82.80
41457;DHT22;27197;51.752;5.220;2023-07-31T06:35:36;20.60;83.40
41457;DHT22;27197;51.752;5.220;2023-07-31T06:38:08;20.60;84.00
41457;DHT22;27197;51.752;5.220;2023-07-31T06:40:38;20.70;83.20
41457;DHT22;27197;51.752;5.220;2023-07-31T06:43:08;20.70;83.30
41457;DHT22;27197;51.752;5.220;2023-07-31T06:45:39;20.70;83.50
41457;DHT22;27197;51.752;5.220;2023-07-31T06:48:09;20.70;83.70
41457;DHT22;27197;51.752;5.220;2023-07-31T06:50:42;21.00;82.60
41457;DHT22;27197;51.752;5.220;2023-07-31T06:53:11;21.20;81.50
41457;DHT22;27197;51.752;5.220;2023-07-31T06:55:47;21.40;80.90
41457;DHT22;27197;51.752;5.220;2023-07-31T06:58:16;21.50;80.30
41457;DHT22;27197;51.752;5.220;2023-07-31T07:00:51;21.50;80.20
41457;DHT22;27197;51.752;5.220;2023-07-31T07:03:19;21.50;79.80
41457;DHT22;27197;51.752;5.220;2023-07-31T07:05:53;21.50;79.70
41457;DHT22;27197;51.752;5.220;2023-07-31T07:08:24;21.60;79.60
41457;DHT22;27197;51.752;5.220;2023-07-31T07:10:58;21.50;79.60
41457;DHT22;27197;51.752;5.220;2023-07-31T07:13:26;21.50;79.60
41457;DHT22;27197;51.752;5.220;2023-07-31T07:15:59;21.60;79.50
41457;DHT22;27197;51.752;5.220;2023-07-31T07:18:33;21.60;79.30
41457;DHT22;27197;51.752;5.220;2023-07-31T07:21:06;21.60;79.70
41457;DHT22;27197;51.752;5.220;2023-07-31T07:23:35;21.60;79.70
41457;DHT22;27197;51.752;5.220;2023-07-31T07:26:07;21.60;79.80
41457;DHT22;27197;51.752;5.220;2023-07-31T07:28:36;21.60;79.90
41457;DHT22;27197;51.752;5.220;2023-07-31T07:31:06;21.40;80.70
41457;DHT22;27197;51.752;5.220;2023-07-31T07:33:40;21.30;81.30
41457;DHT22;27197;51.752;5.220;2023-07-31T07:36:07;21.10;81.80
41457;DHT22;27197;51.752;5.220;2023-07-31T07:38:37;21.20;82.20
41457;DHT22;27197;51.752;5.220;2023-07-31T07:41:06;21.20;81.80
41457;DHT22;27197;51.752;5.220;2023-07-31T07:43:37;21.20;82.00
41457;DHT22;27197;51.752;5.220;2023-07-31T07:46:07;21.20;81.90
41457;DHT22;27197;51.752;5.220;2023-07-31T07:48:37;21.00;82.60
41457;DHT22;27197;51.752;5.220;2023-07-31T07:51:05;21.10;82.50
41457;DHT22;27197;51.752;5.220;2023-07-31T07:53:39;21.10;82.90
41457;DHT22;27197;51.752;5.220;2023-07-31T07:56:10;21.00;83.40
41457;DHT22;27197;51.752;5.220;2023-07-31T07:58:40;20.90;83.90
41457;DHT22;27197;51.752;5.220;2023-07-31T08:01:10;21.00;83.60
41457;DHT22;27197;51.752;5.220;2023-07-31T08:03:43;20.80;83.70
41457;DHT22;27197;51.752;5.220;2023-07-31T08:06:16;20.80;83.90
41457;DHT22;27197;51.752;5.220;2023-07-31T08:08:45;20.90;84.10
41457;DHT22;27197;51.752;5.220;2023-07-31T08:11:17;21.00;83.60
41457;DHT22;27197;51.752;5.220;2023-07-31T08:13:48;21.00;83.70
41457;DHT22;27197;51.752;5.220;2023-07-31T08:16:18;21.00;83.60
41457;DHT22;27197;51.752;5.220;2023-07-31T08:18:47;21.00;83.90
41457;DHT22;27197;51.752;5.220;2023-07-31T08:21:17;21.00;83.90
41457;DHT22;27197;51.752;5.220;2023-07-31T08:23:49;21.00;84.00
41457;DHT22;27197;51.752;5.220;2023-07-31T08:26:22;21.00;83.70
41457;DHT22;27197;51.752;5.220;2023-07-31T08:28:53;20.90;84.30
41457;DHT22;27197;51.752;5.220;2023-07-31T08:31:23;21.00;84.10
41457;DHT22;27197;51.752;5.220;2023-07-31T08:33:55;21.00;84.30
41457;DHT22;27197;51.752;5.220;2023-07-31T08:36:24;21.00;84.10
41457;DHT22;27197;51.752;5.220;2023-07-31T08:38:56;21.00;84.00
41457;DHT22;27197;51.752;5.220;2023-07-31T08:41:29;21.00;84.30
41457;DHT22;27197;51.752;5.220;2023-07-31T08:44:03;21.00;84.60
41457;DHT22;27197;51.752;5.220;2023-07-31T08:46:34;21.10;84.00
41457;DHT22;27197;51.752;5.220;2023-07-31T08:49:07;21.00;84.00
41457;DHT22;27197;51.752;5.220;2023-07-31T08:51:36;21.00;83.90
41457;DHT22;27197;51.752;5.220;2023-07-31T08:54:07;21.00;83.80
41457;DHT22;27197;51.752;5.220;2023-07-31T08:56:38;21.00;84.70
41457;DHT22;27197;51.752;5.220;2023-07-31T08:59:09;21.00;84.20
41457;DHT22;27197;51.752;5.220;2023-07-31T09:01:45;21.00;83.50
41457;DHT22;27197;51.752;5.220;2023-07-31T09:04:14;21.10;83.80
41457;DHT22;27197;51.752;5.220;2023-07-31T09:06:46;21.00;84.10
41457;DHT22;27197;51.752;5.220;2023-07-31T09:09:19;20.90;85.10
41457;DHT22;27197;51.752;5.220;2023-07-31T09:17:16;21.00;84.60
41457;DHT22;27197;51.752;5.220;2023-07-31T09:19:46;21.00;84.30
41457;DHT22;27197;51.752;5.220;2023-07-31T09:22:17;21.00;84.70
41457;DHT22;27197;51.752;5.220;2023-07-31T09:24:51;20.90;84.70
41457;DHT22;27197;51.752;5.220;2023-07-31T09:27:20;21.00;84.40
41457;DHT22;27197;51.752;5.220;2023-07-31T09:30:05;21.10;84.00
41457;DHT22;27197;51.752;5.220;2023-07-31T09:32:38;21.20;84.30
41457;DHT22;27197;51.752;5.220;2023-07-31T09:35:22;21.10;84.10
41457;DHT22;27197;51.752;5.220;2023-07-31T09:37:55;21.20;83.70
41457;DHT22;27197;51.752;5.220;2023-07-31T09:40:35;21.20;84.80
41457;DHT22;27197;51.752;5.220;2023-07-31T09:43:04;21.20;83.90
41457;DHT22;27197;51.752;5.220;2023-07-31T09:45:41;21.20;84.50
41457;DHT22;27197;51.752;5.220;2023-07-31T09:48:17;21.10;85.10
41457;DHT22;27197;51.752;5.220;2023-07-31T09:50:53;21.10;84.80
41457;DHT22;27197;51.752;5.220;2023-07-31T09:53:27;21.10;84.80
41457;DHT22;27197;51.752;5.220;2023-07-31T09:55:59;21.00;85.40
41457;DHT22;27197;51.752;5.220;2023-07-31T09:58:33;21.10;85.20
41457;DHT22;27197;51.752;5.220;2023-07-31T10:01:05;21.10;84.80
41457;DHT22;27197;51.752;5.220;2023-07-31T10:03:39;21.20;85.00
41457;DHT22;27197;51.752;5.220;2023-07-31T10:06:11;21.10;85.40
41457;DHT22;27197;51.752;5.220;2023-07-31T10:08:44;21.10;85.00
41457;DHT22;27197;51.752;5.220;2023-07-31T10:11:20;21.10;85.40
41457;DHT22;27197;51.752;5.220;2023-07-31T10:13:53;21.10;85.10
41457;DHT22;27197;51.752;5.220;2023-07-31T10:16:23;21.10;84.80
41457;DHT22;27197;51.752;5.220;2023-07-31T10:18:55;21.00;85.70
41457;DHT22;27197;51.752;5.220;2023-07-31T10:21:29;21.00;85.60
41457;DHT22;27197;51.752;5.220;2023-07-31T10:24:06;21.00;85.70
41457;DHT22;27197;51.752;5.220;2023-07-31T10:26:38;21.00;85.30
41457;DHT22;27197;51.752;5.220;2023-07-31T10:29:11;21.10;85.20
41457;DHT22;27197;51.752;5.220;2023-07-31T10:31:41;21.00;85.30
41457;DHT22;27197;51.752;5.220;2023-07-31T10:34:15;21.00;86.00
41457;DHT22;27197;51.752;5.220;2023-07-31T10:36:45;21.00;85.60
41457;DHT22;27197;51.752;5.220;2023-07-31T10:39:33;21.20;85.30
41457;DHT22;27197;51.752;5.220;2023-07-31T10:42:16;21.00;85.50
41457;DHT22;27197;51.752;5.220;2023-07-31T10:44:47;21.20;84.50
41457;DHT22;27197;51.752;5.220;2023-07-31T10:47:17;21.10;84.90
41457;DHT22;27197;51.752;5.220;2023-07-31T10:49:52;21.10;85.40
41457;DHT22;27197;51.752;5.220;2023-07-31T10:52:23;21.00;85.40
41457;DHT22;27197;51.752;5.220;2023-07-31T10:57:47;21.00;86.20
41457;DHT22;27197;51.752;5.220;2023-07-31T11:00:21;20.90;86.20
41457;DHT22;27197;51.752;5.220;2023-07-31T11:03:04;20.90;86.40
41457;DHT22;27197;51.752;5.220;2023-07-31T11:08:25;21.00;85.70
41457;DHT22;27197;51.752;5.220;2023-07-31T11:11:14;21.00;86.60
41457;DHT22;27197;51.752;5.220;2023-07-31T11:13:51;21.00;85.80
41457;DHT22;27197;51.752;5.220;2023-07-31T11:16:24;21.00;86.10
41457;DHT22;27197;51.752;5.220;2023-07-31T11:18:56;21.00;85.80
41457;DHT22;27197;51.752;5.220;2023-07-31T11:21:32;21.10;86.60
41457;DHT22;27197;51.752;5.220;2023-07-31T11:24:00;21.10;86.30
41457;DHT22;27197;51.752;5.220;2023-07-31T11:26:32;21.10;86.80
41457;DHT22;27197;51.752;5.220;2023-07-31T11:29:11;21.20;85.60
41457;DHT22;27197;51.752;5.220;2023-07-31T11:31:46;21.20;85.80
41457;DHT22;27197;51.752;5.220;2023-07-31T11:34:19;21.20;85.40
41457;DHT22;27197;51.752;5.220;2023-07-31T11:36:54;21.30;86.30
41457;DHT22;27197;51.752;5.220;2023-07-31T11:39:29;21.30;85.60
41457;DHT22;27197;51.752;5.220;2023-07-31T11:42:04;21.30;86.80
41457;DHT22;27197;51.752;5.220;2023-07-31T11:44:40;21.20;86.90
41457;DHT22;27197;51.752;5.220;2023-07-31T11:47:11;21.20;86.70
41457;DHT22;27197;51.752;5.220;2023-07-31T11:49:43;21.20;85.70
41457;DHT22;27197;51.752;5.220;2023-07-31T11:52:15;21.20;86.40
41457;DHT22;27197;51.752;5.220;2023-07-31T11:54:50;21.20;86.10
41457;DHT22;27197;51.752;5.220;2023-07-31T11:57:19;21.20;87.00
41457;DHT22;27197;51.752;5.220;2023-07-31T11:59:50;21.30;86.00
41457;DHT22;27197;51.752;5.220;2023-07-31T12:02:20;21.20;86.50
41457;DHT22;27197;51.752;5.220;2023-07-31T12:04:50;21.20;86.80
41457;DHT22;27197;51.752;5.220;2023-07-31T12:07:19;21.20;87.10
41457;DHT22;27197;51.752;5.220;2023-07-31T12:09:54;21.10;86.90
41457;DHT22;27197;51.752;5.220;2023-07-31T12:12:27;21.20;86.90
41457;DHT22;27197;51.752;5.220;2023-07-31T12:14:58;21.00;87.80
41457;DHT22;27197;51.752;5.220;2023-07-31T12:17:28;21.10;87.60
41457;DHT22;27197;51.752;5.220;2023-07-31T12:19:58;21.00;87.70
41457;DHT22;27197;51.752;5.220;2023-07-31T12:22:30;21.10;88.00
41457;DHT22;27197;51.752;5.220;2023-07-31T12:25:01;21.00;88.10
41457;DHT22;27197;51.752;5.220;2023-07-31T12:27:33;21.10;88.30
41457;DHT22;27197;51.752;5.220;2023-07-31T12:30:05;21.10;87.60
41457;DHT22;27197;51.752;5.220;2023-07-31T12:32:37;21.10;87.60
41457;DHT22;27197;51.752;5.220;2023-07-31T12:35:08;21.10;87.10
41457;DHT22;27197;51.752;5.220;2023-07-31T12:37:38;21.10;88.50
41457;DHT22;27197;51.752;5.220;2023-07-31T12:40:08;21.10;88.70
41457;DHT22;27197;51.752;5.220;2023-07-31T12:42:36;21.00;88.70
41457;DHT22;27197;51.752;5.220;2023-07-31T12:45:07;21.00;88.90
41457;DHT22;27197;51.752;5.220;2023-07-31T12:47:38;21.00;89.50
41457;DHT22;27197;51.752;5.220;2023-07-31T12:50:09;21.10;88.70
41457;DHT22;27197;51.752;5.220;2023-07-31T12:52:39;21.10;88.70
41457;DHT22;27197;51.752;5.220;2023-07-31T12:55:12;21.10;88.60
41457;DHT22;27197;51.752;5.220;2023-07-31T12:57:47;21.10;89.50
41457;DHT22;27197;51.752;5.220;2023-07-31T13:00:16;21.00;89.70
41457;DHT22;27197;51.752;5.220;2023-07-31T13:02:50;21.00;89.60
41457;DHT22;27197;51.752;5.220;2023-07-31T13:05:22;21.00;90.00
41457;DHT22;27197;51.752;5.220;2023-07-31T13:07:57;21.00;89.80
41457;DHT22;27197;51.752;5.220;2023-07-31T13:10:45;21.00;90.00
41457;DHT22;27197;51.752;5.220;2023-07-31T13:13:17;21.10;89.70
41457;DHT22;27197;51.752;5.220;2023-07-31T13:15:51;21.00;89.70
41457;DHT22;27197;51.752;5.220;2023-07-31T13:18:24;21.00;90.10
41457;DHT22;27197;51.752;5.220;2023-07-31T13:20:55;21.00;89.70
41457;DHT22;27197;51.752;5.220;2023-07-31T13:23:23;21.00;90.30
41457;DHT22;27197;51.752;5.220;2023-07-31T13:25:54;21.00;89.80
41457;DHT22;27197;51.752;5.220;2023-07-31T13:28:26;21.00;90.20
41457;DHT22;27197;51.752;5.220;2023-07-31T13:31:00;21.10;90.30
41457;DHT22;27197;51.752;5.220;2023-07-31T13:33:29;21.10;89.80
41457;DHT22;27197;51.752;5.220;2023-07-31T13:36:02;21.10;90.20
41457;DHT22;27197;51.752;5.220;2023-07-31T13:38:33;21.10;90.50
41457;DHT22;27197;51.752;5.220;2023-07-31T13:41:06;21.00;90.40
41457;DHT22;27197;51.752;5.220;2023-07-31T13:43:36;21.10;90.20
41457;DHT22;27197;51.752;5.220;2023-07-31T13:46:09;21.00;90.10
41457;DHT22;27197;51.752;5.220;2023-07-31T13:48:38;21.00;90.20
41457;DHT22;27197;51.752;5.220;2023-07-31T13:51:11;21.00;90.10
41457;DHT22;27197;51.752;5.220;2023-07-31T13:53:45;21.10;90.00
41457;DHT22;27197;51.752;5.220;2023-07-31T13:56:15;21.10;90.10
41457;DHT22;27197;51.752;5.220;2023-07-31T13:58:45;21.00;90.80
41457;DHT22;27197;51.752;5.220;2023-07-31T14:04:02;21.00;90.60
41457;DHT22;27197;51.752;5.220;2023-07-31T14:06:31;21.00;90.60
41457;DHT22;27197;51.752;5.220;2023-07-31T14:09:00;21.00;90.80
41457;DHT22;27197;51.752;5.220;2023-07-31T14:11:30;21.00;91.00
41457;DHT22;27197;51.752;5.220;2023-07-31T14:13:59;21.00;91.00
41457;DHT22;27197;51.752;5.220;2023-07-31T14:16:36;21.00;90.80
41457;DHT22;27197;51.752;5.220;2023-07-31T14:19:09;21.10;90.90
41457;DHT22;27197;51.752;5.220;2023-07-31T14:21:43;21.00;90.50
41457;DHT22;27197;51.752;5.220;2023-07-31T14:24:13;21.00;90.50
41457;DHT22;27197;51.752;5.220;2023-07-31T14:26:42;21.00;90.70
41457;DHT22;27197;51.752;5.220;2023-07-31T14:29:12;21.00;90.80
41457;DHT22;27197;51.752;5.220;2023-07-31T14:31:43;21.00;90.80
41457;DHT22;27197;51.752;5.220;2023-07-31T14:34:12;21.00;90.80
41457;DHT22;27197;51.752;5.220;2023-07-31T14:36:47;21.00;90.80
41457;DHT22;27197;51.752;5.220;2023-07-31T14:39:14;21.00;90.60
41457;DHT22;27197;51.752;5.220;2023-07-31T14:41:48;21.00;91.30
41457;DHT22;27197;51.752;5.220;2023-07-31T14:44:16;20.90;90.90
41457;DHT22;27197;51.752;5.220;2023-07-31T14:46:46;20.90;91.00
41457;DHT22;27197;51.752;5.220;2023-07-31T14:49:20;21.00;91.00
41457;DHT22;27197;51.752;5.220;2023-07-31T14:51:48;21.00;91.00
41457;DHT22;27197;51.752;5.220;2023-07-31T14:54:24;21.00;91.00
41457;DHT22;27197;51.752;5.220;2023-07-31T14:56:54;20.90;90.90
41457;DHT22;27197;51.752;5.220;2023-07-31T14:59:29;21.00;90.70
41457;DHT22;27197;51.752;5.220;2023-07-31T15:01:58;21.00;90.50
41457;DHT22;27197;51.752;5.220;2023-07-31T15:04:31;21.00;90.80
41457;DHT22;27197;51.752;5.220;2023-07-31T15:07:01;21.00;90.90
41457;DHT22;27197;51.752;5.220;2023-07-31T15:09:35;21.00;90.80
41457;DHT22;27197;51.752;5.220;2023-07-31T15:12:12;20.90;91.00
41457;DHT22;27197;51.752;5.220;2023-07-31T15:14:47;20.90;91.10
41457;DHT22;27197;51.752;5.220;2023-07-31T15:17:15;20.90;91.00
41457;DHT22;27197;51.752;5.220;2023-07-31T15:19:49;20.90;90.90
41457;DHT22;27197;51.752;5.220;2023-07-31T15:22:19;21.00;90.90
41457;DHT22;27197;51.752;5.220;2023-07-31T15:24:52;20.90;91.00
41457;DHT22;27197;51.752;5.220;2023-07-31T15:27:21;20.90;90.70
41457;DHT22;27197;51.752;5.220;2023-07-31T15:29:55;20.90;90.60
41457;DHT22;27197;51.752;5.220;2023-07-31T15:32:25;20.90;90.90
41457;DHT22;27197;51.752;5.220;2023-07-31T15:34:57;20.90;90.80
41457;DHT22;27197;51.752;5.220;2023-07-31T15:37:28;20.90;90.90
41457;DHT22;27197;51.752;5.220;2023-07-31T15:39:59;20.80;91.10
41457;DHT22;27197;51.752;5.220;2023-07-31T15:42:33;20.70;91.20
41457;DHT22;27197;51.752;5.220;2023-07-31T15:45:02;20.80;91.20
41457;DHT22;27197;51.752;5.220;2023-07-31T15:47:31;20.80;91.10
41457;DHT22;27197;51.752;5.220;2023-07-31T15:50:04;20.80;91.00
41457;DHT22;27197;51.752;5.220;2023-07-31T15:52:34;20.80;91.00
41457;DHT22;27197;51.752;5.220;2023-07-31T15:55:05;20.80;90.90
41457;DHT22;27197;51.752;5.220;2023-07-31T15:57:36;20.80;91.00
41457;DHT22;27197;51.752;5.220;2023-07-31T16:00:08;20.70;90.90
41457;DHT22;27197;51.752;5.220;2023-07-31T16:02:40;20.70;91.00
41457;DHT22;27197;51.752;5.220;2023-07-31T16:05:12;20.70;91.10
41457;DHT22;27197;51.752;5.220;2023-07-31T16:07:45;20.70;91.00
41457;DHT22;27197;51.752;5.220;2023-07-31T16:10:15;20.80;91.00
41457;DHT22;27197;51.752;5.220;2023-07-31T16:12:49;20.70;91.10
41457;DHT22;27197;51.752;5.220;2023-07-31T16:15:17;20.70;91.10
41457;DHT22;27197;51.752;5.220;2023-07-31T16:20:35;20.70;91.20
41457;DHT22;27197;51.752;5.220;2023-07-31T16:23:04;20.70;91.00
41457;DHT22;27197;51.752;5.220;2023-07-31T16:25:35;20.80;91.00
41457;DHT22;27197;51.752;5.220;2023-07-31T16:28:05;20.70;91.30
41457;DHT22;27197;51.752;5.220;2023-07-31T16:30:39;20.80;90.80
41457;DHT22;27197;51.752;5.220;2023-07-31T16:33:12;20.60;91.00
41457;DHT22;27197;51.752;5.220;2023-07-31T16:35:42;20.70;90.90
41457;DHT22;27197;51.752;5.220;2023-07-31T16:38:13;20.70;90.80
41457;DHT22;27197;51.752;5.220;2023-07-31T16:40:47;20.70;90.80
41457;DHT22;27197;51.752;5.220;2023-07-31T16:43:17;20.70;90.90